createdAt,value
2022-12-25T00:01:27.821Z,64.52
2022-12-25T00:03:56.989Z,66.78
2022-12-25T00:06:26.167Z,65.44
2022-12-25T00:08:54.684Z,62.15
2022-12-25T00:11:23.245Z,57.70
2022-12-25T00:13:51.894Z,54.49
2022-12-25T00:16:25.340Z,54.34
2022-12-25T00:18:56.514Z,55.79
2022-12-25T00:21:25.351Z,57.33
2022-12-25T00:23:55.496Z,59.11
2022-12-25T00:26:26.003Z,60.86
2022-12-25T00:28:55.969Z,63.42
2022-12-25T00:31:26.140Z,67.27
2022-12-25T00:33:55.116Z,65.17
2022-12-25T00:36:23.928Z,62.74
2022-12-25T00:38:52.442Z,58.27
2022-12-25T00:41:43.301Z,54.18
2022-12-25T00:44:13.989Z,53.80
2022-12-25T00:46:43.615Z,56.90
2022-12-25T00:49:12.670Z,57.93
2022-12-25T00:51:41.198Z,58.68
2022-12-25T00:54:10.147Z,59.17
2022-12-25T00:56:38.926Z,59.73
2022-12-25T00:59:08.041Z,62.80
2022-12-25T01:01:38.213Z,67.33
2022-12-25T01:04:07.820Z,66.66
2022-12-25T01:06:36.275Z,64.42
2022-12-25T01:09:23.869Z,60.00
2022-12-25T01:11:52.636Z,54.69
2022-12-25T01:14:21.290Z,54.20
2022-12-25T01:16:50.246Z,54.87
2022-12-25T01:19:19.078Z,56.04
2022-12-25T01:21:47.548Z,56.88
2022-12-25T01:24:16.472Z,58.12
2022-12-25T01:26:45.210Z,58.83
2022-12-25T01:29:13.708Z,59.96
2022-12-25T01:31:42.405Z,63.92
2022-12-25T01:34:11.413Z,68.51
2022-12-25T01:36:39.922Z,67.04
2022-12-25T01:39:08.575Z,64.24
2022-12-25T01:41:37.098Z,58.80
2022-12-25T01:44:27.973Z,54.08
2022-12-25T01:46:56.439Z,53.10
2022-12-25T01:49:26.007Z,54.48
2022-12-25T01:51:59.263Z,55.33
2022-12-25T01:54:39.882Z,56.25
2022-12-25T01:57:16.352Z,57.01
2022-12-25T01:59:46.052Z,58.80
2022-12-25T02:02:15.139Z,59.67
2022-12-25T02:04:52.330Z,60.29
2022-12-25T02:07:24.102Z,64.25
2022-12-25T02:09:53.456Z,68.71
2022-12-25T02:12:28.993Z,67.20
2022-12-25T02:15:05.416Z,64.54
2022-12-25T02:17:37.534Z,58.95
2022-12-25T02:20:38.465Z,54.47
2022-12-25T02:23:38.196Z,53.43
2022-12-25T02:26:38.337Z,53.93
2022-12-25T02:29:17.933Z,54.99
2022-12-25T02:32:02.529Z,56.55
2022-12-25T02:35:20.412Z,57.42
2022-12-25T02:38:13.678Z,57.84
2022-12-25T02:40:52.253Z,59.18
2022-12-25T02:43:46.990Z,64.39
2022-12-25T02:46:39.440Z,67.93
2022-12-25T02:49:35.179Z,67.24
2022-12-25T02:52:34.042Z,65.28
2022-12-25T02:55:30.531Z,58.87
2022-12-25T02:58:21.247Z,54.18
2022-12-25T03:01:14.397Z,53.84
2022-12-25T03:04:05.905Z,54.33
2022-12-25T03:06:46.986Z,55.25
2022-12-25T03:09:46.591Z,56.48
2022-12-25T03:12:41.228Z,57.02
2022-12-25T03:15:31.018Z,58.05
2022-12-25T03:18:03.291Z,59.59
2022-12-25T03:20:50.656Z,63.73
2022-12-25T03:23:41.231Z,70.90
2022-12-25T03:26:28.986Z,67.26
2022-12-25T03:29:00.686Z,65.60
2022-12-25T03:31:53.714Z,59.46
2022-12-25T03:34:59.594Z,54.40
2022-12-25T03:38:18.385Z,53.29
2022-12-25T03:41:21.397Z,53.84
2022-12-25T03:44:41.901Z,54.85
2022-12-25T03:47:36.668Z,55.45
2022-12-25T03:51:06.787Z,57.08
2022-12-25T03:54:03.668Z,57.45
2022-12-25T03:56:52.835Z,59.12
2022-12-25T03:59:41.859Z,65.18
2022-12-25T04:02:29.565Z,69.65
2022-12-25T04:05:16.977Z,67.02
2022-12-25T04:08:04.428Z,64.98
2022-12-25T04:10:51.687Z,58.42
2022-12-25T04:13:40.727Z,53.94
2022-12-25T04:16:28.102Z,53.44
2022-12-25T04:19:15.284Z,54.48
2022-12-25T04:22:02.332Z,55.54
2022-12-25T04:24:49.585Z,56.81
2022-12-25T04:27:36.530Z,57.71
2022-12-25T04:30:24.073Z,58.66
2022-12-25T04:33:16.925Z,60.04
2022-12-25T04:36:07.691Z,66.77
2022-12-25T04:38:37.210Z,72.05
2022-12-25T04:41:06.583Z,67.72
2022-12-25T04:43:35.861Z,64.61
2022-12-25T04:46:05.219Z,58.63
2022-12-25T04:48:35.793Z,53.42
2022-12-25T04:51:20.184Z,52.80
2022-12-25T04:53:49.803Z,53.17
2022-12-25T04:56:19.059Z,54.29
2022-12-25T04:58:48.148Z,55.26
2022-12-25T05:01:17.039Z,56.85
2022-12-25T05:03:45.804Z,57.64
2022-12-25T05:06:14.380Z,58.40
2022-12-25T05:08:42.862Z,59.33
2022-12-25T05:11:14.542Z,60.21
2022-12-25T05:13:43.970Z,64.52
2022-12-25T05:16:18.897Z,69.80
2022-12-25T05:18:51.352Z,67.74
2022-12-25T05:21:19.716Z,65.53
2022-12-25T05:33:08.357Z,53.64
2022-12-25T05:35:38.125Z,54.33
2022-12-25T05:38:07.849Z,55.23
2022-12-25T05:40:40.945Z,56.11
2022-12-25T05:43:09.766Z,57.00
2022-12-25T05:45:38.369Z,58.10
2022-12-25T05:48:06.896Z,58.94
2022-12-25T05:50:37.681Z,59.75
2022-12-25T05:53:08.533Z,63.70
2022-12-25T05:55:38.919Z,68.62
2022-12-25T05:58:08.657Z,67.11
2022-12-25T06:00:37.608Z,64.43
2022-12-25T06:03:06.278Z,59.04
2022-12-25T06:05:37.739Z,54.09
2022-12-25T06:08:06.204Z,53.51
2022-12-25T06:10:34.753Z,54.07
2022-12-25T06:13:03.893Z,54.98
2022-12-25T06:15:32.939Z,55.92
2022-12-25T06:18:02.040Z,56.95
2022-12-25T06:20:30.623Z,57.92
2022-12-25T06:22:59.872Z,58.70
2022-12-25T06:25:28.323Z,59.53
2022-12-25T06:27:56.863Z,60.33
2022-12-25T06:30:25.450Z,64.18
2022-12-25T06:32:53.963Z,68.94
2022-12-25T06:35:22.504Z,67.34
2022-12-25T06:37:51.009Z,64.56
2022-12-25T06:40:19.767Z,59.22
2022-12-25T06:42:48.237Z,54.34
2022-12-25T06:45:16.739Z,54.10
2022-12-25T06:47:45.328Z,55.42
2022-12-25T06:50:14.094Z,56.82
2022-12-25T06:52:42.553Z,57.32
2022-12-25T06:55:11.150Z,58.50
2022-12-25T06:57:39.723Z,60.27
2022-12-25T07:00:09.060Z,63.71
2022-12-25T07:02:38.680Z,68.27
2022-12-25T07:05:07.649Z,66.53
2022-12-25T07:07:36.093Z,63.89
2022-12-25T07:10:04.944Z,58.66
2022-12-25T07:12:33.634Z,53.99
2022-12-25T07:15:02.334Z,53.39
2022-12-25T07:17:30.960Z,53.92
2022-12-25T07:20:02.396Z,54.73
2022-12-25T07:22:30.874Z,55.94
2022-12-25T07:24:59.388Z,56.98
2022-12-25T07:27:27.933Z,57.84
2022-12-25T07:29:56.564Z,59.32
2022-12-25T07:32:25.221Z,63.76
2022-12-25T07:34:53.723Z,69.99
2022-12-25T07:37:22.274Z,67.65
2022-12-25T07:39:50.707Z,64.15
2022-12-25T07:42:23.379Z,58.09
2022-12-25T07:44:54.931Z,52.93
2022-12-25T07:47:23.407Z,52.55
2022-12-25T07:49:51.901Z,53.24
2022-12-25T07:52:20.522Z,54.28
2022-12-25T07:54:48.958Z,55.44
2022-12-25T07:57:17.386Z,57.10
2022-12-25T07:59:46.008Z,58.07
2022-12-25T08:02:14.960Z,59.12
2022-12-25T08:04:43.704Z,59.93
2022-12-25T08:07:12.330Z,64.65
2022-12-25T08:09:40.839Z,69.96
2022-12-25T08:12:09.342Z,67.51
2022-12-25T08:14:37.810Z,64.21
2022-12-25T08:17:06.658Z,58.19
2022-12-25T08:19:35.509Z,53.19
2022-12-25T08:22:04.015Z,52.52
2022-12-25T08:24:32.541Z,53.64
2022-12-25T08:27:01.197Z,54.46
2022-12-25T08:29:29.744Z,55.47
2022-12-25T08:31:58.695Z,56.56
2022-12-25T08:34:27.316Z,57.50
2022-12-25T08:36:55.788Z,58.52
2022-12-25T08:39:24.492Z,59.52
2022-12-25T08:41:53.083Z,60.37
2022-12-25T08:44:21.755Z,64.43
2022-12-25T08:46:50.305Z,68.56
2022-12-25T08:49:19.404Z,66.79
2022-12-25T08:51:48.253Z,64.30
2022-12-25T08:54:16.853Z,59.02
2022-12-25T08:56:45.393Z,54.44
2022-12-25T08:59:13.916Z,53.85
2022-12-25T09:01:42.586Z,54.45
2022-12-25T09:04:11.202Z,55.37
2022-12-25T09:06:39.764Z,56.24
2022-12-25T09:09:08.309Z,57.26
2022-12-25T09:11:36.828Z,58.03
2022-12-25T09:14:05.347Z,58.88
2022-12-25T09:16:34.102Z,59.72
2022-12-25T09:19:02.664Z,63.47
2022-12-25T09:21:31.626Z,68.56
2022-12-25T09:24:00.146Z,66.15
2022-12-25T09:26:28.602Z,60.90
2022-12-25T09:28:57.403Z,55.58
2022-12-25T09:31:26.123Z,54.83
2022-12-25T09:33:58.094Z,55.33
2022-12-25T09:36:27.388Z,56.13
2022-12-25T09:38:55.849Z,57.14
2022-12-25T09:41:56.869Z,58.05
2022-12-25T09:44:33.743Z,58.18
2022-12-25T09:47:11.215Z,59.58
2022-12-25T09:49:54.860Z,63.78
2022-12-25T09:52:33.372Z,68.75
2022-12-25T09:55:20.472Z,66.38
2022-12-25T09:57:58.684Z,60.80
2022-12-25T10:00:56.517Z,55.61
2022-12-25T10:03:34.027Z,54.74
2022-12-25T10:06:37.857Z,55.64
2022-12-25T10:09:22.019Z,56.01
2022-12-25T10:12:24.185Z,57.54
2022-12-25T10:15:17.330Z,58.19
2022-12-25T10:18:04.898Z,59.32
2022-12-25T10:21:13.171Z,65.44
2022-12-25T10:23:48.487Z,71.13
2022-12-25T10:26:22.909Z,66.61
2022-12-25T10:29:00.214Z,60.56
2022-12-25T10:31:30.866Z,55.05
2022-12-25T10:33:59.824Z,54.43
2022-12-25T10:36:30.230Z,55.26
2022-12-25T10:38:58.802Z,56.08
2022-12-25T10:41:53.558Z,57.36
2022-12-25T10:44:24.986Z,57.48
2022-12-25T10:46:57.509Z,58.98
2022-12-25T10:49:36.913Z,59.85
2022-12-25T10:52:27.025Z,65.11
2022-12-25T10:54:56.561Z,70.29
2022-12-25T10:57:26.650Z,66.42
2022-12-25T10:59:57.141Z,60.60
2022-12-25T11:02:31.785Z,55.29
2022-12-25T11:05:02.914Z,54.55
2022-12-25T11:07:33.445Z,55.30
2022-12-25T11:10:21.127Z,56.78
2022-12-25T11:12:49.904Z,56.97
2022-12-25T11:15:39.857Z,58.43
2022-12-25T11:18:25.545Z,58.76
2022-12-25T11:21:01.073Z,59.84
2022-12-25T11:23:33.248Z,64.87
2022-12-25T11:26:06.290Z,69.37
2022-12-25T11:28:37.442Z,72.95
2022-12-25T11:31:09.656Z,69.34
2022-12-25T11:34:01.680Z,60.24
2022-12-25T11:36:39.389Z,54.74
2022-12-25T11:39:23.456Z,54.20
2022-12-25T11:42:02.145Z,54.70
2022-12-25T11:44:35.346Z,55.84
2022-12-25T11:47:13.489Z,56.97
2022-12-25T11:49:52.166Z,57.75
2022-12-25T11:52:26.064Z,58.45
2022-12-25T11:55:02.815Z,59.55
2022-12-25T11:57:33.382Z,60.27
2022-12-25T12:00:14.468Z,65.31
2022-12-25T12:02:49.826Z,69.17
2022-12-25T12:05:28.354Z,65.59
2022-12-25T12:08:02.617Z,59.82
2022-12-25T12:11:01.285Z,55.09
2022-12-25T12:13:29.971Z,54.21
2022-12-25T12:15:58.945Z,55.38
2022-12-25T12:18:27.692Z,56.47
2022-12-25T12:21:18.678Z,57.39
2022-12-25T12:24:00.671Z,57.88
2022-12-25T12:26:34.827Z,58.98
2022-12-25T12:29:06.247Z,60.08
2022-12-25T12:31:48.917Z,64.42
2022-12-25T12:34:26.217Z,69.11
2022-12-25T12:37:26.738Z,65.82
2022-12-25T12:39:56.206Z,60.52
2022-12-25T12:42:33.234Z,56.26
2022-12-25T12:45:16.103Z,56.26
2022-12-25T12:47:47.948Z,56.86
2022-12-25T12:50:30.739Z,57.74
2022-12-25T12:53:05.645Z,58.32
2022-12-25T12:55:35.481Z,59.59
2022-12-25T12:58:06.224Z,64.00
2022-12-25T13:00:56.568Z,68.33
2022-12-25T13:03:43.432Z,67.51
2022-12-25T13:06:20.677Z,60.79
2022-12-25T13:09:20.279Z,55.33
2022-12-25T13:11:49.841Z,54.53
2022-12-25T13:14:21.326Z,55.77
2022-12-25T13:16:54.243Z,56.97
2022-12-25T13:19:28.342Z,58.15
2022-12-25T13:22:03.398Z,58.88
2022-12-25T13:24:37.487Z,60.11
2022-12-25T13:27:23.768Z,64.60
2022-12-25T13:29:52.321Z,69.73
2022-12-25T13:32:25.319Z,66.24
2022-12-25T13:34:54.914Z,60.68
2022-12-25T13:37:27.196Z,55.68
2022-12-25T13:40:00.098Z,55.07
2022-12-25T13:42:32.302Z,55.70
2022-12-25T13:45:06.489Z,56.59
2022-12-25T13:47:34.879Z,57.56
2022-12-25T13:50:26.682Z,58.75
2022-12-25T13:52:57.312Z,59.06
2022-12-25T13:55:26.962Z,60.40
2022-12-25T13:58:01.518Z,65.49
2022-12-25T14:00:32.956Z,70.24
2022-12-25T14:03:01.820Z,66.78
2022-12-25T14:05:42.268Z,62.08
2022-12-25T14:08:19.175Z,57.97
2022-12-25T14:10:51.906Z,54.58
2022-12-25T14:13:25.145Z,54.51
2022-12-25T14:15:54.833Z,57.03
2022-12-25T14:18:25.296Z,59.40
2022-12-25T14:21:01.786Z,60.04
2022-12-25T14:23:47.832Z,65.04
2022-12-25T14:26:20.543Z,68.49
2022-12-25T14:29:00.574Z,64.63
2022-12-25T14:31:29.762Z,58.81
2022-12-25T14:34:01.585Z,54.67
2022-12-25T14:36:32.288Z,54.50
2022-12-25T14:39:06.989Z,55.47
2022-12-25T14:41:38.343Z,56.41
2022-12-25T14:44:39.936Z,57.59
2022-12-25T14:47:11.215Z,57.83
2022-12-25T14:49:40.630Z,60.21
2022-12-25T14:52:20.488Z,64.79
2022-12-25T14:54:54.313Z,69.49
2022-12-25T14:57:32.363Z,66.86
2022-12-25T15:00:08.124Z,63.84
2022-12-25T15:02:45.080Z,58.17
2022-12-25T15:05:30.529Z,53.79
2022-12-25T15:08:14.092Z,53.60
2022-12-25T15:11:00.942Z,54.93
2022-12-25T15:13:32.964Z,55.62
2022-12-25T15:16:08.928Z,57.32
2022-12-25T15:18:45.064Z,58.31
2022-12-25T15:21:16.023Z,59.39
2022-12-25T15:23:44.777Z,64.38
2022-12-25T15:26:14.620Z,68.84
2022-12-25T15:28:43.361Z,66.81
2022-12-25T15:31:32.391Z,63.58
2022-12-25T15:34:04.361Z,57.85
2022-12-25T15:36:36.782Z,53.60
2022-12-25T15:39:05.518Z,53.64
2022-12-25T15:41:55.588Z,54.87
2022-12-25T15:44:24.850Z,55.41
2022-12-25T15:46:53.434Z,57.17
2022-12-25T15:49:21.984Z,58.35
2022-12-25T15:51:50.464Z,59.47
2022-12-25T15:54:19.165Z,60.29
2022-12-25T15:57:14.307Z,65.44
2022-12-25T15:59:42.782Z,70.66
2022-12-25T16:02:18.363Z,66.59
2022-12-25T16:04:47.314Z,63.61
2022-12-25T16:07:18.735Z,57.52
2022-12-25T16:09:47.283Z,53.61
2022-12-25T16:12:16.082Z,53.78
2022-12-25T16:14:44.510Z,54.82
2022-12-25T16:17:15.729Z,56.09
2022-12-25T16:19:45.009Z,57.40
2022-12-25T16:22:26.123Z,58.38
2022-12-25T16:24:55.292Z,59.11
2022-12-25T16:27:24.056Z,64.27
2022-12-25T16:29:52.627Z,68.72
2022-12-25T16:32:21.310Z,65.71
2022-12-25T16:34:49.935Z,62.64
2022-12-25T16:37:18.651Z,58.03
2022-12-25T16:39:47.073Z,53.97
2022-12-25T16:42:15.652Z,53.83
2022-12-25T16:44:44.917Z,54.72
2022-12-25T16:47:13.503Z,55.85
2022-12-25T16:49:41.970Z,57.25
2022-12-25T16:52:10.484Z,58.60
2022-12-25T16:54:38.912Z,59.74
2022-12-25T16:57:07.364Z,64.44
2022-12-25T16:59:36.127Z,67.94
2022-12-25T17:02:04.950Z,65.71
2022-12-25T17:04:33.517Z,60.09
2022-12-25T17:07:02.018Z,55.67
2022-12-25T17:09:31.511Z,56.38
2022-12-25T17:12:00.064Z,56.85
2022-12-25T17:14:28.498Z,58.95
2022-12-25T17:16:57.057Z,59.62
2022-12-25T17:19:25.838Z,64.27
2022-12-25T17:21:57.487Z,68.11
2022-12-25T17:24:27.193Z,64.49
2022-12-25T17:26:55.910Z,59.60
2022-12-25T17:29:25.269Z,55.54
2022-12-25T17:31:53.814Z,55.38
2022-12-25T17:34:22.886Z,56.58
2022-12-25T17:36:52.695Z,57.61
2022-12-25T17:39:21.432Z,58.72
2022-12-25T17:41:51.032Z,59.74
2022-12-25T17:44:22.902Z,64.74
2022-12-25T17:46:51.751Z,68.69
2022-12-25T17:49:22.253Z,66.10
2022-12-25T17:51:51.039Z,62.95
2022-12-25T17:54:19.742Z,57.75
2022-12-25T17:56:49.492Z,53.92
2022-12-25T17:59:18.937Z,54.24
2022-12-25T18:01:49.331Z,55.39
2022-12-25T18:04:18.451Z,56.47
2022-12-25T18:06:47.370Z,57.63
2022-12-25T18:09:16.041Z,59.75
2022-12-25T18:11:44.838Z,63.57
2022-12-25T18:14:15.942Z,66.89
2022-12-25T18:16:45.816Z,64.92
2022-12-25T18:19:15.721Z,60.29
2022-12-25T18:21:44.760Z,55.44
2022-12-25T18:24:13.588Z,55.56
2022-12-25T18:26:42.281Z,56.73
2022-12-25T18:29:11.020Z,59.07
2022-12-25T18:31:39.544Z,60.77
2022-12-25T18:34:08.416Z,65.17
2022-12-25T18:36:37.707Z,67.97
2022-12-25T18:39:06.581Z,66.03
2022-12-25T18:41:55.280Z,62.19
2022-12-25T18:44:23.910Z,56.60
2022-12-25T18:46:52.584Z,53.86
2022-12-25T18:49:21.271Z,54.88
2022-12-25T18:51:51.110Z,55.69
2022-12-25T18:54:19.836Z,57.91
2022-12-25T18:56:53.470Z,59.07
2022-12-25T18:59:22.716Z,59.89
2022-12-25T19:01:51.294Z,64.89
2022-12-25T19:04:20.064Z,67.48
2022-12-25T19:06:49.695Z,65.47
2022-12-25T19:09:18.509Z,62.19
2022-12-25T19:11:47.197Z,57.40
2022-12-25T19:14:16.710Z,54.64
2022-12-25T19:16:45.938Z,54.97
2022-12-25T19:19:15.560Z,56.81
2022-12-25T19:21:44.083Z,57.97
2022-12-25T19:24:12.574Z,59.22
2022-12-25T19:26:41.015Z,63.47
2022-12-25T19:29:09.834Z,67.78
2022-12-25T19:31:40.983Z,66.12
2022-12-25T19:34:11.277Z,62.76
2022-12-25T19:36:40.007Z,57.44
2022-12-25T19:39:11.813Z,54.17
2022-12-25T19:41:44.530Z,54.15
2022-12-25T19:44:13.105Z,55.50
2022-12-25T19:46:42.144Z,57.01
2022-12-25T19:49:13.548Z,58.18
2022-12-25T19:51:44.881Z,59.77
2022-12-25T19:54:16.295Z,65.00
2022-12-25T19:56:44.903Z,67.74
2022-12-25T19:59:14.824Z,65.33
2022-12-25T20:01:43.891Z,60.59
2022-12-25T20:04:12.559Z,56.62
2022-12-25T20:06:42.804Z,55.00
2022-12-25T20:09:20.870Z,55.45
2022-12-25T20:11:50.463Z,56.64
2022-12-25T20:14:19.790Z,60.33
2022-12-25T20:16:48.621Z,63.62
2022-12-25T20:19:17.230Z,64.72
2022-12-25T20:21:45.996Z,64.72
2022-12-25T20:24:14.505Z,62.64
2022-12-25T20:26:45.339Z,58.47
2022-12-25T20:29:16.848Z,55.00
2022-12-25T20:31:45.625Z,55.96
2022-12-25T20:34:14.439Z,57.97
2022-12-25T20:36:45.479Z,59.26
2022-12-25T20:39:13.985Z,63.42
2022-12-25T20:41:44.701Z,66.30
2022-12-25T20:44:13.575Z,64.53
2022-12-25T20:46:42.895Z,62.06
2022-12-25T20:49:12.091Z,57.94
2022-12-25T20:51:40.866Z,54.76
2022-12-25T20:54:10.405Z,55.93
2022-12-25T20:56:39.041Z,57.70
2022-12-25T20:59:09.475Z,58.64
2022-12-25T21:01:38.151Z,60.14
2022-12-25T21:04:10.422Z,64.74
2022-12-25T21:06:43.237Z,67.81
2022-12-25T21:09:12.094Z,64.96
2022-12-25T21:11:40.629Z,62.82
2022-12-25T21:14:09.465Z,57.00
2022-12-25T21:16:38.420Z,55.68
2022-12-25T21:19:06.985Z,58.66
2022-12-25T21:21:36.136Z,60.19
2022-12-25T21:24:04.854Z,64.02
2022-12-25T21:26:33.300Z,66.77
2022-12-25T21:29:04.023Z,61.97
2022-12-25T21:31:55.843Z,59.12
2022-12-25T21:34:24.454Z,57.66
2022-12-25T21:36:53.176Z,58.72
2022-12-25T21:39:21.760Z,59.91
2022-12-25T21:41:50.343Z,64.45
2022-12-25T21:44:18.967Z,66.90
2022-12-25T21:46:49.423Z,63.74
2022-12-25T21:49:37.891Z,62.00
2022-12-25T21:52:09.173Z,58.13
2022-12-25T21:54:37.920Z,56.24
2022-12-25T21:57:06.507Z,57.14
2022-12-25T21:59:35.148Z,58.64
2022-12-25T22:02:11.486Z,62.97
2022-12-25T22:04:40.711Z,64.62
2022-12-25T22:07:19.242Z,62.12
2022-12-25T22:09:51.559Z,61.76
2022-12-25T22:12:40.254Z,58.05
2022-12-25T22:15:10.502Z,56.05
2022-12-25T22:17:59.666Z,57.14
2022-12-25T22:20:36.584Z,57.91
2022-12-25T22:23:05.930Z,61.05
2022-12-25T22:25:34.385Z,65.59
2022-12-25T22:28:02.919Z,69.13
2022-12-25T22:30:32.004Z,66.49
2022-12-25T22:33:00.544Z,63.26
2022-12-25T22:35:29.132Z,58.95
2022-12-25T22:37:57.871Z,56.05
2022-12-25T22:40:26.580Z,56.32
2022-12-25T22:42:56.602Z,57.28
2022-12-25T22:45:25.180Z,59.70
2022-12-25T22:47:53.747Z,63.60
2022-12-25T22:50:22.219Z,66.50
2022-12-25T22:52:50.837Z,63.14
2022-12-25T22:55:20.346Z,61.93
2022-12-25T22:57:49.224Z,58.25
2022-12-25T23:00:17.883Z,56.88
2022-12-25T23:02:46.636Z,56.68
2022-12-25T23:05:15.580Z,58.19
2022-12-25T23:07:44.126Z,59.57
2022-12-25T23:10:12.715Z,64.34
2022-12-25T23:13:01.964Z,65.51
2022-12-25T23:15:31.447Z,65.68
2022-12-25T23:18:32.306Z,63.48
2022-12-25T23:21:19.594Z,58.47
2022-12-25T23:24:06.944Z,56.36
2022-12-25T23:26:35.415Z,56.37
2022-12-25T23:29:22.574Z,59.90
2022-12-25T23:31:53.765Z,64.89
2022-12-25T23:34:23.034Z,66.53
2022-12-25T23:36:51.492Z,64.61
2022-12-25T23:39:20.077Z,61.49
2022-12-25T23:41:49.109Z,56.08
2022-12-25T23:44:18.228Z,54.61
2022-12-25T23:46:53.140Z,55.81
2022-12-25T23:49:23.977Z,56.82
2022-12-25T23:51:53.922Z,59.47
2022-12-25T23:54:30.607Z,63.69
2022-12-25T23:57:00.042Z,66.93
2022-12-25T23:59:30.985Z,61.94
